createdAt,value
2022-11-27T00:01:34.448Z,0.20
2022-11-27T00:04:01.422Z,0.20
2022-11-27T00:06:30.029Z,0.10
2022-11-27T00:08:58.789Z,0.00
2022-11-27T00:11:28.816Z,0.00
2022-11-27T00:13:55.831Z,0.00
2022-11-27T00:16:23.951Z,-0.10
2022-11-27T00:18:50.852Z,-0.10
2022-11-27T00:21:24.264Z,-0.10
2022-11-27T00:23:53.412Z,-0.10
2022-11-27T00:26:21.429Z,-0.10
2022-11-27T00:28:48.829Z,-0.10
2022-11-27T00:31:19.868Z,0.00
2022-11-27T00:33:47.148Z,-0.10
2022-11-27T00:36:15.488Z,-0.20
2022-11-27T00:38:42.347Z,-0.30
2022-11-27T00:41:12.476Z,-0.30
2022-11-27T00:43:44.375Z,-0.30
2022-11-27T00:46:17.506Z,-0.40
2022-11-27T00:48:45.624Z,-0.40
2022-11-27T00:51:19.104Z,-0.50
2022-11-27T00:53:47.031Z,-0.50
2022-11-27T00:56:19.627Z,-0.60
2022-11-27T00:58:46.900Z,-0.70
2022-11-27T01:01:24.087Z,-0.80
2022-11-27T01:03:51.513Z,-0.80
2022-11-27T01:06:20.320Z,-0.80
2022-11-27T01:08:48.033Z,-0.90
2022-11-27T01:11:23.005Z,-0.90
2022-11-27T01:13:49.851Z,-0.90
2022-11-27T01:16:20.989Z,-0.90
2022-11-27T01:18:49.671Z,-0.90
2022-11-27T01:21:20.338Z,-0.80
2022-11-27T01:23:48.683Z,-0.70
2022-11-27T01:26:18.444Z,-0.70
2022-11-27T01:28:46.516Z,-0.60
2022-11-27T01:31:20.703Z,-0.60
2022-11-27T01:33:48.196Z,-0.70
2022-11-27T01:36:16.296Z,-0.70
2022-11-27T01:38:43.549Z,-0.70
2022-11-27T01:41:20.827Z,-0.80
2022-11-27T01:43:56.360Z,-0.90
2022-11-27T01:46:33.308Z,-0.80
2022-11-27T01:49:08.752Z,-0.80
2022-11-27T01:51:44.631Z,-0.80
2022-11-27T01:54:12.711Z,-0.80
2022-11-27T01:56:41.862Z,-0.80
2022-11-27T01:59:08.711Z,-0.80
2022-11-27T02:01:35.668Z,-0.80
2022-11-27T02:04:03.315Z,-0.80
2022-11-27T02:06:30.266Z,-0.80
2022-11-27T02:08:57.236Z,-0.80
2022-11-27T02:11:49.020Z,-0.90
2022-11-27T02:14:15.753Z,-0.90
2022-11-27T02:17:03.134Z,-1.00
2022-11-27T02:20:06.981Z,-1.00
2022-11-27T02:23:16.093Z,-1.10
2022-11-27T02:26:41.600Z,-1.00
2022-11-27T02:29:11.331Z,-1.00
2022-11-27T02:31:53.545Z,-1.00
2022-11-27T02:34:37.462Z,-1.00
2022-11-27T02:37:31.321Z,-1.00
2022-11-27T02:40:03.876Z,-1.00
2022-11-27T02:43:04.974Z,-0.90
2022-11-27T02:45:48.675Z,-0.90
2022-11-27T02:48:20.099Z,-0.90
2022-11-27T02:50:48.119Z,-0.90
2022-11-27T02:53:26.848Z,-1.00
2022-11-27T02:55:55.900Z,-1.00
2022-11-27T02:58:26.975Z,-0.90
2022-11-27T03:00:55.801Z,-0.90
2022-11-27T03:03:27.440Z,-0.80
2022-11-27T03:06:00.811Z,-0.80
2022-11-27T03:08:44.509Z,-0.90
2022-11-27T03:11:15.048Z,-0.80
2022-11-27T03:13:52.420Z,-0.70
2022-11-27T03:16:40.873Z,-0.70
2022-11-27T03:19:23.738Z,-0.70
2022-11-27T03:22:00.445Z,-0.70
2022-11-27T03:24:29.547Z,-0.70
2022-11-27T03:26:59.149Z,-0.60
2022-11-27T03:29:30.347Z,-0.60
2022-11-27T03:31:57.965Z,-0.60
2022-11-27T03:34:25.316Z,-0.70
2022-11-27T03:36:52.156Z,-0.70
2022-11-27T03:39:21.556Z,-0.60
2022-11-27T03:42:20.570Z,-0.60
2022-11-27T03:44:55.160Z,-0.60
2022-11-27T03:48:07.689Z,-0.60
2022-11-27T03:51:10.247Z,-0.60
2022-11-27T03:53:49.076Z,-0.60
2022-11-27T03:56:39.515Z,-0.60
2022-11-27T03:59:15.959Z,-0.60
2022-11-27T04:01:43.097Z,-0.60
2022-11-27T04:04:10.049Z,-0.70
2022-11-27T04:06:36.889Z,-0.70
2022-11-27T04:09:04.515Z,-0.70
2022-11-27T04:11:31.647Z,-0.70
2022-11-27T04:13:58.471Z,-0.60
2022-11-27T04:16:25.356Z,-0.60
2022-11-27T04:18:52.252Z,-0.60
2022-11-27T04:21:19.493Z,-0.60
2022-11-27T04:23:46.395Z,-0.70
2022-11-27T04:26:13.313Z,-0.70
2022-11-27T04:28:40.343Z,-0.80
2022-11-27T04:31:07.217Z,-0.90
2022-11-27T04:33:34.218Z,-0.80
2022-11-27T04:36:01.067Z,-0.80
2022-11-27T04:38:27.900Z,-0.70
2022-11-27T04:40:54.743Z,-0.70
2022-11-27T04:43:21.619Z,-0.60
2022-11-27T04:45:48.448Z,-0.60
2022-11-27T04:48:15.243Z,-0.60
2022-11-27T04:50:42.173Z,-0.70
2022-11-27T04:53:09.004Z,-0.60
2022-11-27T04:55:36.078Z,-0.60
2022-11-27T04:58:02.948Z,-0.60
2022-11-27T05:00:29.840Z,-0.60
2022-11-27T05:02:56.745Z,-0.60
2022-11-27T05:05:23.555Z,-0.60
2022-11-27T05:07:50.428Z,-0.60
2022-11-27T05:10:17.329Z,-0.60
2022-11-27T05:12:44.163Z,-0.50
2022-11-27T05:15:11.265Z,-0.50
2022-11-27T05:17:38.115Z,-0.50
2022-11-27T05:20:06.094Z,-0.60
2022-11-27T05:22:32.936Z,-0.50
2022-11-27T05:24:59.743Z,-0.40
2022-11-27T05:27:26.602Z,-0.40
2022-11-27T05:29:53.399Z,-0.40
2022-11-27T05:32:20.303Z,-0.40
2022-11-27T05:34:48.623Z,-0.40
2022-11-27T05:37:19.413Z,-0.40
2022-11-27T05:39:47.054Z,-0.40
2022-11-27T05:42:14.000Z,-0.40
2022-11-27T05:44:41.024Z,-0.30
2022-11-27T05:47:08.027Z,-0.30
2022-11-27T05:49:35.269Z,-0.30
2022-11-27T05:52:02.121Z,-0.30
2022-11-27T05:54:28.974Z,-0.40
2022-11-27T05:56:55.797Z,-0.40
2022-11-27T05:59:22.592Z,-0.40
2022-11-27T06:01:49.644Z,-0.40
2022-11-27T06:04:16.800Z,-0.30
2022-11-27T06:06:43.638Z,-0.30
2022-11-27T06:09:13.050Z,-0.30
2022-11-27T06:11:41.024Z,-0.20
2022-11-27T06:14:11.499Z,-0.30
2022-11-27T06:16:38.806Z,-0.30
2022-11-27T06:19:05.627Z,-0.30
2022-11-27T06:21:32.392Z,-0.30
2022-11-27T06:23:59.321Z,-0.30
2022-11-27T06:26:31.925Z,-0.20
2022-11-27T06:29:01.307Z,-0.10
2022-11-27T06:31:31.179Z,0.00
2022-11-27T06:33:58.897Z,0.00
2022-11-27T06:36:31.889Z,0.00
2022-11-27T06:38:58.875Z,0.10
2022-11-27T06:41:28.060Z,0.10
2022-11-27T06:43:56.081Z,0.20
2022-11-27T06:46:24.212Z,0.10
2022-11-27T06:48:52.672Z,0.10
2022-11-27T06:51:23.872Z,0.10
2022-11-27T06:53:52.409Z,0.10
2022-11-27T06:56:22.909Z,0.20
2022-11-27T06:58:55.251Z,0.20
2022-11-27T07:01:23.929Z,0.20
2022-11-27T07:03:51.009Z,0.20
2022-11-27T07:06:23.827Z,0.20
2022-11-27T07:08:50.877Z,0.30
2022-11-27T07:11:21.623Z,0.20
2022-11-27T07:13:50.502Z,0.20
2022-11-27T07:16:18.856Z,0.30
2022-11-27T07:18:52.973Z,0.30
2022-11-27T07:21:20.582Z,0.40
2022-11-27T07:23:47.413Z,0.30
2022-11-27T07:26:21.550Z,0.30
2022-11-27T07:28:48.844Z,0.40
2022-11-27T07:31:26.631Z,0.40
2022-11-27T07:33:54.179Z,0.40
2022-11-27T07:36:27.088Z,0.50
2022-11-27T07:38:54.626Z,0.60
2022-11-27T07:41:21.737Z,0.70
2022-11-27T07:43:49.157Z,0.80
2022-11-27T07:46:23.019Z,0.80
2022-11-27T07:48:50.097Z,0.90
2022-11-27T07:51:21.170Z,0.80
2022-11-27T07:53:48.658Z,0.80
2022-11-27T07:56:16.834Z,0.70
2022-11-27T07:58:44.132Z,0.70
2022-11-27T08:01:15.137Z,0.80
2022-11-27T08:03:45.191Z,0.80
2022-11-27T08:06:21.296Z,0.90
2022-11-27T08:08:49.411Z,0.90
2022-11-27T08:11:32.818Z,0.90
2022-11-27T08:14:05.543Z,0.90
2022-11-27T08:16:34.179Z,0.90
2022-11-27T08:19:01.488Z,0.90
2022-11-27T08:21:29.548Z,0.90
2022-11-27T08:23:58.064Z,0.90
2022-11-27T08:26:27.614Z,0.80
2022-11-27T08:28:55.555Z,0.70
2022-11-27T08:31:22.743Z,0.70
2022-11-27T08:33:49.809Z,0.70
2022-11-27T08:36:18.272Z,0.80
2022-11-27T08:38:46.267Z,0.90
2022-11-27T08:41:13.231Z,0.90
2022-11-27T08:43:40.140Z,0.80
2022-11-27T08:46:07.745Z,0.80
2022-11-27T08:48:35.239Z,0.70
2022-11-27T08:51:11.362Z,0.60
2022-11-27T08:53:38.656Z,0.60
2022-11-27T08:56:14.349Z,0.60
2022-11-27T08:58:41.279Z,0.70
2022-11-27T09:01:17.824Z,0.70
2022-11-27T09:03:44.943Z,0.70
2022-11-27T09:06:16.189Z,0.80
2022-11-27T09:08:43.898Z,0.70
2022-11-27T09:11:14.040Z,0.80
2022-11-27T09:13:42.249Z,0.90
2022-11-27T09:16:13.269Z,0.80
2022-11-27T09:18:40.553Z,0.80
2022-11-27T09:21:09.872Z,0.80
2022-11-27T09:23:37.707Z,0.70
2022-11-27T09:26:08.666Z,0.70
2022-11-27T09:28:37.126Z,0.50
2022-11-27T09:31:06.473Z,0.50
2022-11-27T09:33:36.199Z,0.70
2022-11-27T09:36:09.623Z,0.70
2022-11-27T09:38:37.123Z,0.70
2022-11-27T09:41:33.686Z,0.80
2022-11-27T09:44:11.659Z,1.00
2022-11-27T09:46:41.708Z,1.10
2022-11-27T09:49:16.220Z,1.10
2022-11-27T09:51:53.785Z,1.10
2022-11-27T09:54:38.969Z,1.10
2022-11-27T09:57:06.491Z,1.20
2022-11-27T09:59:50.989Z,1.30
2022-11-27T10:02:28.659Z,1.30
2022-11-27T10:05:13.479Z,1.40
2022-11-27T10:07:43.961Z,1.50
2022-11-27T10:10:45.471Z,1.30
2022-11-27T10:13:56.556Z,1.30
2022-11-27T10:17:01.993Z,1.40
2022-11-27T10:19:57.688Z,1.50
2022-11-27T10:22:59.594Z,1.50
2022-11-27T10:25:39.956Z,1.60
2022-11-27T10:28:33.567Z,1.70
2022-11-27T10:31:13.804Z,1.70
2022-11-27T10:33:56.697Z,1.70
2022-11-27T10:36:53.659Z,1.70
2022-11-27T10:39:41.171Z,1.80
2022-11-27T10:42:26.253Z,1.90
2022-11-27T10:45:31.771Z,1.90
2022-11-27T10:47:58.601Z,2.10
2022-11-27T10:50:25.500Z,2.10
2022-11-27T10:52:58.047Z,2.10
2022-11-27T10:55:37.001Z,2.20
2022-11-27T10:58:50.267Z,2.30
2022-11-27T11:01:22.884Z,2.40
2022-11-27T11:03:49.943Z,2.40
2022-11-27T11:06:25.858Z,2.40
2022-11-27T11:09:07.290Z,2.40
2022-11-27T11:11:34.068Z,2.40
2022-11-27T11:14:00.904Z,2.50
2022-11-27T11:16:35.347Z,2.70
2022-11-27T11:19:03.587Z,2.90
2022-11-27T11:21:31.981Z,2.80
2022-11-27T11:24:01.790Z,2.90
2022-11-27T11:26:51.455Z,3.00
2022-11-27T11:29:36.350Z,3.00
2022-11-27T11:32:11.438Z,3.10
2022-11-27T11:34:47.826Z,3.10
2022-11-27T11:37:36.347Z,3.10
2022-11-27T11:40:22.685Z,3.20
2022-11-27T11:43:00.269Z,3.10
2022-11-27T11:45:33.226Z,3.10
2022-11-27T11:48:24.843Z,3.10
2022-11-27T11:51:06.208Z,3.00
2022-11-27T11:53:45.447Z,3.00
2022-11-27T11:56:52.462Z,3.00
2022-11-27T11:59:28.675Z,2.90
2022-11-27T12:02:23.147Z,2.90
2022-11-27T12:05:08.473Z,3.00
2022-11-27T12:08:47.213Z,2.90
2022-11-27T12:11:24.361Z,3.00
2022-11-27T12:14:31.656Z,3.10
2022-11-27T12:17:20.094Z,3.20
2022-11-27T12:20:06.193Z,3.30
2022-11-27T12:23:44.315Z,3.30
2022-11-27T12:26:22.752Z,3.20
2022-11-27T12:29:29.941Z,3.10
2022-11-27T12:32:33.897Z,3.10
2022-11-27T12:35:33.658Z,3.10
2022-11-27T12:38:34.554Z,3.10
2022-11-27T12:41:31.140Z,3.20
2022-11-27T12:44:00.561Z,3.20
2022-11-27T12:46:38.710Z,3.10
2022-11-27T12:49:15.276Z,3.20
2022-11-27T12:52:14.371Z,3.20
2022-11-27T12:54:49.746Z,3.20
2022-11-27T12:57:30.365Z,3.00
2022-11-27T13:00:01.984Z,3.00
2022-11-27T13:02:41.381Z,2.90
2022-11-27T13:05:20.451Z,3.00
2022-11-27T13:08:30.788Z,3.10
2022-11-27T13:11:05.498Z,3.10
2022-11-27T13:13:34.684Z,3.20
2022-11-27T13:16:07.613Z,3.20
2022-11-27T13:18:40.991Z,3.20
2022-11-27T13:21:15.379Z,3.10
2022-11-27T13:23:42.368Z,3.30
2022-11-27T13:26:23.243Z,3.10
2022-11-27T13:29:08.664Z,3.10
2022-11-27T13:31:39.472Z,3.10
2022-11-27T13:34:19.896Z,3.10
2022-11-27T13:36:56.276Z,3.00
2022-11-27T13:39:27.899Z,3.00
2022-11-27T13:42:22.300Z,3.00
2022-11-27T13:44:58.095Z,3.10
2022-11-27T13:47:29.548Z,3.20
2022-11-27T13:50:07.102Z,3.20
2022-11-27T13:52:35.554Z,3.20
2022-11-27T13:55:07.524Z,3.30
2022-11-27T13:57:34.804Z,3.30
2022-11-27T14:00:08.189Z,3.30
2022-11-27T14:02:47.738Z,3.30
2022-11-27T14:05:40.746Z,3.30
2022-11-27T14:08:38.396Z,3.30
2022-11-27T14:11:11.736Z,3.50
2022-11-27T14:13:49.227Z,3.40
2022-11-27T14:16:32.171Z,3.40
2022-11-27T14:19:04.409Z,3.30
2022-11-27T14:21:40.825Z,3.40
2022-11-27T14:24:44.029Z,3.40
2022-11-27T14:27:23.764Z,3.40
2022-11-27T14:29:51.656Z,3.30
2022-11-27T14:32:20.310Z,3.20
2022-11-27T14:34:48.748Z,3.30
2022-11-27T14:37:27.975Z,3.30
2022-11-27T14:39:55.530Z,3.20
2022-11-27T14:42:30.104Z,3.20
2022-11-27T14:45:08.713Z,3.10
2022-11-27T14:47:36.008Z,3.00
2022-11-27T14:50:04.020Z,3.00
2022-11-27T14:52:31.523Z,3.00
2022-11-27T14:55:01.185Z,3.10
2022-11-27T14:57:30.196Z,3.00
2022-11-27T15:00:27.093Z,3.00
2022-11-27T15:02:54.833Z,2.90
2022-11-27T15:05:26.103Z,3.00
2022-11-27T15:07:56.990Z,3.00
2022-11-27T15:10:39.299Z,3.00
2022-11-27T15:13:08.677Z,3.10
2022-11-27T15:15:44.990Z,3.20
2022-11-27T15:18:25.100Z,3.20
2022-11-27T15:20:52.868Z,3.20
2022-11-27T15:23:29.656Z,3.20
2022-11-27T15:25:59.429Z,3.10
2022-11-27T15:28:37.672Z,3.00
2022-11-27T15:31:31.452Z,3.10
2022-11-27T15:34:23.346Z,3.10
2022-11-27T15:36:58.537Z,3.10
2022-11-27T15:39:47.167Z,3.20
2022-11-27T15:42:14.690Z,3.20
2022-11-27T15:44:41.944Z,3.20
2022-11-27T15:47:36.643Z,3.20
2022-11-27T15:50:05.557Z,3.20
2022-11-27T15:52:33.080Z,3.20
2022-11-27T15:54:59.868Z,3.20
2022-11-27T15:57:26.780Z,3.20
2022-11-27T15:59:53.575Z,3.10
2022-11-27T16:02:20.549Z,3.00
2022-11-27T16:04:47.526Z,3.10
2022-11-27T16:07:14.753Z,3.00
2022-11-27T16:09:41.669Z,3.00
2022-11-27T16:12:08.518Z,3.00
2022-11-27T16:14:35.492Z,3.10
2022-11-27T16:17:02.507Z,3.10
2022-11-27T16:19:29.971Z,3.00
2022-11-27T16:21:56.958Z,2.90
2022-11-27T16:24:23.984Z,2.90
2022-11-27T16:26:50.841Z,2.90
2022-11-27T16:29:17.976Z,2.90
2022-11-27T16:31:44.870Z,2.80
2022-11-27T16:34:11.811Z,2.80
2022-11-27T16:36:42.128Z,2.80
2022-11-27T16:39:09.129Z,2.80
2022-11-27T16:41:36.336Z,2.80
2022-11-27T16:44:11.797Z,2.80
2022-11-27T16:46:39.438Z,2.80
2022-11-27T16:49:09.182Z,2.90
2022-11-27T16:51:39.237Z,2.80
2022-11-27T16:54:10.705Z,2.70
2022-11-27T16:56:38.633Z,2.70
2022-11-27T16:59:15.730Z,2.70
2022-11-27T17:01:43.389Z,2.70
2022-11-27T17:04:18.297Z,2.80
2022-11-27T17:06:45.944Z,2.80
2022-11-27T17:09:13.577Z,2.80
2022-11-27T17:11:48.295Z,2.80
2022-11-27T17:14:16.239Z,2.90
2022-11-27T17:16:43.377Z,2.80
2022-11-27T17:19:16.002Z,3.00
2022-11-27T17:21:43.246Z,2.90
2022-11-27T17:24:16.069Z,2.90
2022-11-27T17:26:44.684Z,3.00
2022-11-27T17:29:15.192Z,2.90
2022-11-27T17:31:42.357Z,2.90
2022-11-27T17:34:14.144Z,2.80
2022-11-27T17:36:42.967Z,2.70
2022-11-27T17:39:13.302Z,2.70
2022-11-27T17:41:41.152Z,2.70
2022-11-27T17:44:08.321Z,2.70
2022-11-27T17:46:36.891Z,2.60
2022-11-27T17:49:06.390Z,2.60
2022-11-27T17:51:35.413Z,2.50
2022-11-27T17:54:03.588Z,2.60
2022-11-27T17:56:30.508Z,2.50
2022-11-27T17:58:57.966Z,2.50
2022-11-27T18:01:29.197Z,2.70
2022-11-27T18:04:00.509Z,2.60
2022-11-27T18:06:27.678Z,2.70
2022-11-27T18:08:56.469Z,2.70
2022-11-27T18:11:26.185Z,2.50
2022-11-27T18:13:53.035Z,2.60
2022-11-27T18:16:31.074Z,2.60
2022-11-27T18:18:59.335Z,2.60
2022-11-27T18:21:28.439Z,2.60
2022-11-27T18:27:07.190Z,2.60
2022-11-27T18:29:29.925Z,2.60
2022-11-27T18:31:56.829Z,2.70
2022-11-27T18:34:23.654Z,2.70
2022-11-27T18:36:50.460Z,2.70
2022-11-27T18:39:17.303Z,2.70
2022-11-27T18:41:44.144Z,2.70
2022-11-27T18:44:11.025Z,2.70
2022-11-27T18:46:38.223Z,2.80
2022-11-27T18:49:05.582Z,2.80
2022-11-27T18:51:32.849Z,2.80
2022-11-27T18:53:59.724Z,2.80
2022-11-27T18:56:30.448Z,2.90
2022-11-27T18:59:01.341Z,2.90
2022-11-27T19:01:30.802Z,3.00
2022-11-27T19:04:00.440Z,2.90
2022-11-27T19:06:28.524Z,2.90
2022-11-27T19:08:56.789Z,2.90
2022-11-27T19:11:24.831Z,3.00
2022-11-27T19:13:55.479Z,2.90
2022-11-27T19:16:31.020Z,2.90
2022-11-27T19:19:00.380Z,2.90
2022-11-27T19:21:30.214Z,2.80
2022-11-27T19:23:59.920Z,2.90
2022-11-27T19:26:30.716Z,3.00
2022-11-27T19:29:01.388Z,2.90
2022-11-27T19:31:30.543Z,2.90
2022-11-27T19:33:59.892Z,3.00
2022-11-27T19:36:30.065Z,3.00
2022-11-27T19:39:15.859Z,3.00
2022-11-27T19:41:44.022Z,3.10
2022-11-27T19:44:13.040Z,3.10
2022-11-27T19:46:40.955Z,3.10
2022-11-27T19:49:14.244Z,3.00
2022-11-27T19:51:41.684Z,3.00
2022-11-27T19:54:12.649Z,3.00
2022-11-27T19:56:40.818Z,3.00
2022-11-27T19:59:08.825Z,3.00
2022-11-27T20:01:37.592Z,2.90
2022-11-27T20:04:05.549Z,2.90
2022-11-27T20:06:32.951Z,2.90
2022-11-27T20:09:03.726Z,3.00
2022-11-27T20:11:34.860Z,3.00
2022-11-27T20:14:04.499Z,2.90
2022-11-27T20:16:32.004Z,3.00
2022-11-27T20:18:59.302Z,2.90
2022-11-27T20:21:26.591Z,2.90
2022-11-27T20:23:54.775Z,3.00
2022-11-27T20:26:25.173Z,3.00
2022-11-27T20:28:53.968Z,3.00
2022-11-27T20:31:25.278Z,3.00
2022-11-27T20:33:54.423Z,3.00
2022-11-27T20:36:23.707Z,3.00
2022-11-27T20:38:52.037Z,3.40
2022-11-27T20:41:21.153Z,3.70
2022-11-27T20:43:50.546Z,4.00
2022-11-27T20:46:18.037Z,3.90
2022-11-27T20:48:50.303Z,3.70
2022-11-27T20:51:28.335Z,3.60
2022-11-27T20:53:58.664Z,3.50
2022-11-27T20:56:25.645Z,3.40
2022-11-27T20:58:52.544Z,3.40
2022-11-27T21:01:35.475Z,3.30
2022-11-27T21:04:09.516Z,3.20
2022-11-27T21:06:43.422Z,3.20
2022-11-27T21:09:12.265Z,3.20
2022-11-27T21:11:40.389Z,3.10
2022-11-27T21:14:10.145Z,3.20
2022-11-27T21:16:42.332Z,3.20
2022-11-27T21:19:25.247Z,3.20
2022-11-27T21:21:54.160Z,3.30
2022-11-27T21:24:22.586Z,3.10
2022-11-27T21:26:49.955Z,3.10
2022-11-27T21:29:17.292Z,3.10
2022-11-27T21:31:47.151Z,3.10
2022-11-27T21:34:14.932Z,3.10
2022-11-27T21:36:41.905Z,3.10
2022-11-27T21:39:10.518Z,3.00
2022-11-27T21:41:37.449Z,3.10
2022-11-27T21:44:05.767Z,3.10
2022-11-27T21:46:33.555Z,3.10
2022-11-27T21:49:01.260Z,3.10
2022-11-27T21:51:29.955Z,3.10
2022-11-27T21:53:58.984Z,3.10
2022-11-27T21:56:28.859Z,3.00
2022-11-27T21:58:56.003Z,3.00
2022-11-27T22:01:25.785Z,3.00
2022-11-27T22:03:57.396Z,3.00
2022-11-27T22:06:28.746Z,3.00
2022-11-27T22:08:58.429Z,3.00
2022-11-27T22:11:30.175Z,3.00
2022-11-27T22:14:02.493Z,3.00
2022-11-27T22:16:33.508Z,3.00
2022-11-27T22:19:01.941Z,3.00
2022-11-27T22:21:30.860Z,3.00
2022-11-27T22:24:01.052Z,3.00
2022-11-27T22:26:28.731Z,3.00
2022-11-27T22:28:57.795Z,2.90
2022-11-27T22:31:31.121Z,2.90
2022-11-27T22:33:58.204Z,2.90
2022-11-27T22:36:33.165Z,2.80
2022-11-27T22:39:04.374Z,2.70
2022-11-27T22:41:36.197Z,2.70
2022-11-27T22:44:29.968Z,2.70
2022-11-27T22:46:56.750Z,2.70
2022-11-27T22:49:23.620Z,2.80
2022-11-27T22:51:50.408Z,2.70
2022-11-27T22:54:17.552Z,2.70
2022-11-27T22:56:45.724Z,2.70
2022-11-27T23:02:00.288Z,2.70
2022-11-27T23:04:27.164Z,2.70
2022-11-27T23:06:54.088Z,2.80
2022-11-27T23:09:20.871Z,2.70
2022-11-27T23:11:48.177Z,2.70
2022-11-27T23:14:15.134Z,2.60
2022-11-27T23:16:42.037Z,2.60
2022-11-27T23:19:10.112Z,2.70
2022-11-27T23:21:38.647Z,2.60
2022-11-27T23:24:07.946Z,2.60
2022-11-27T23:26:35.095Z,2.60
2022-11-27T23:29:02.386Z,2.70
2022-11-27T23:31:35.535Z,2.60
2022-11-27T23:34:07.434Z,2.60
2022-11-27T23:36:35.526Z,2.60
2022-11-27T23:39:05.335Z,2.60
2022-11-27T23:41:32.347Z,2.60
2022-11-27T23:43:59.451Z,2.60
2022-11-27T23:46:29.473Z,2.60
2022-11-27T23:48:59.571Z,2.60
2022-11-27T23:51:30.990Z,2.60
2022-11-27T23:53:58.999Z,2.70
2022-11-27T23:56:30.844Z,2.50
2022-11-27T23:58:58.401Z,2.50
